Indian River, MI (49749)

12:44 AM EDT on September 01, 2016 (GMT -0400)
Northwest Burt Lake | | Change Station

Elev 626 ft 45.51 °N, 84.70 °W | Updated 13 minutes ago

Clear
Clear
58.2 °F
Feels Like 58.2 °F
N
1.0
Wind Variable Wind from West
Gusts 3.0 mph

Today
High -- | Low -- °F
--% Chance of Precip.
Yesterday
High -- | Low -- °F
Precip. -- in
Pressure 30.12 in
Visibility 10.0 miles
Clouds Clear
Dew Point 55 °F
Humidity 90%
Rainfall 0.00 in
Snow Depth Not available.
7:00 AM 8:15 PM
Waning Crescent, 0% visible
METAR KPLN 010354Z AUTO 32005KT 10SM CLR 15/12 A3012 RMK AO2 SLP199 T01500122
Pressure 30.12 in
Visibility 10.0 miles
Clouds Clear
Dew Point 55 °F
Humidity 90%
Rainfall 0.00 in
Snow Depth Not available.
7:00 AM 8:15 PM
Waning Crescent, 0% visible
METAR KPLN 010354Z AUTO 32005KT 10SM CLR 15/12 A3012 RMK AO2 SLP199 T01500122

10-Day Weather Forecast

Almanac

Astronomy

Sep. 01, 2016 Rise Set
Actual Time
Civil Twilight
Nautical Twilight
Astronomical Twilight
Moon
Length of Visible Light
Length of Day
Tomorrow will be .
, % of the Moon is Illuminated

Today's Extremes

State Highs State Lows

Community

WunderPhotos

Upload Photos

1,936,313 photos uploaded!

WunderBlog® & News

Nearby

Air Quality

  Air Quality AQ Index Pollutant
Not available.

Snow Depth

Station Depth Elevation

Earthquake Activity

City Distance Mag. Time & Date
Minimum magnitude displayed is 2.5.

Coastal Water Temperatures

Place Temperature

Stations

Nearby Weather Stations

Station Location Temp. Windchill Dew Point Humidity Wind Precip. Elev Updated Type
                   

Watches & Warnings

There are currently no watches in effect.